createdAt,value
2018-05-21T00:00:34.263Z,0.00
2018-05-21T00:01:34.250Z,0.00
2018-05-21T00:02:34.247Z,0.00
2018-05-21T00:03:34.259Z,0.00
2018-05-21T00:04:34.209Z,0.00
2018-05-21T00:05:34.196Z,0.00
2018-05-21T00:06:34.183Z,0.00
2018-05-21T00:07:34.170Z,0.00
2018-05-21T00:08:34.154Z,0.00
2018-05-21T00:09:34.142Z,0.00
2018-05-21T00:10:34.131Z,0.00
2018-05-21T00:11:34.116Z,0.00
2018-05-21T00:12:34.103Z,0.00
2018-05-21T00:13:34.097Z,0.00
2018-05-21T00:14:34.074Z,0.00
2018-05-21T00:15:34.062Z,0.00
2018-05-21T00:16:34.052Z,0.00
2018-05-21T00:17:34.041Z,0.00
2018-05-21T00:18:34.020Z,0.00
2018-05-21T00:19:34.034Z,0.00
2018-05-21T00:20:34.034Z,0.00
2018-05-21T00:21:34.027Z,0.00
2018-05-21T00:22:34.009Z,0.00
2018-05-21T00:23:33.996Z,0.00
2018-05-21T00:24:33.967Z,0.00
2018-05-21T00:25:33.954Z,0.00
2018-05-21T00:26:33.955Z,0.00
2018-05-21T00:27:33.941Z,0.00
2018-05-21T00:28:33.924Z,0.00
2018-05-21T00:29:33.897Z,0.00
2018-05-21T00:30:33.900Z,0.00
2018-05-21T00:31:33.877Z,0.00
2018-05-21T00:32:33.867Z,0.00
2018-05-21T00:33:33.845Z,0.00
2018-05-21T00:34:33.843Z,0.00
2018-05-21T00:35:33.823Z,0.00
2018-05-21T00:36:33.826Z,0.00
2018-05-21T00:37:33.801Z,0.00
2018-05-21T00:38:33.802Z,0.00
2018-05-21T00:39:33.769Z,0.00
2018-05-21T00:40:33.772Z,0.00
2018-05-21T00:41:33.754Z,0.00
2018-05-21T00:42:33.731Z,0.00
2018-05-21T00:43:33.712Z,0.00
2018-05-21T00:44:33.784Z,0.00
2018-05-21T00:45:33.705Z,0.00
2018-05-21T00:46:33.683Z,0.00
2018-05-21T00:47:33.663Z,0.00
2018-05-21T00:48:33.654Z,0.00
2018-05-21T00:49:33.654Z,0.00
2018-05-21T00:50:33.639Z,0.00
2018-05-21T00:51:33.614Z,0.00
2018-05-21T00:52:33.619Z,0.00
2018-05-21T00:53:33.608Z,0.00
2018-05-21T00:54:33.579Z,0.00
2018-05-21T00:55:33.576Z,0.00
2018-05-21T00:56:33.556Z,0.00
2018-05-21T00:57:33.544Z,0.00
2018-05-21T00:58:33.535Z,0.00
2018-05-21T00:59:33.520Z,0.00
2018-05-21T01:00:33.515Z,0.00
2018-05-21T01:01:33.502Z,0.00
2018-05-21T01:02:33.483Z,0.00
2018-05-21T01:03:33.464Z,0.00
2018-05-21T01:04:33.441Z,0.00
2018-05-21T01:05:33.426Z,0.00
2018-05-21T01:06:33.425Z,0.00
2018-05-21T01:07:33.423Z,0.00
2018-05-21T01:08:33.401Z,0.00
2018-05-21T01:09:33.391Z,0.00
2018-05-21T01:10:33.360Z,0.00
2018-05-21T01:11:33.350Z,0.00
2018-05-21T01:12:33.341Z,0.00
2018-05-21T01:13:33.348Z,0.00
2018-05-21T01:14:33.324Z,0.00
2018-05-21T01:15:33.296Z,0.00
2018-05-21T01:16:33.295Z,0.00
2018-05-21T01:17:33.283Z,0.00
2018-05-21T01:18:33.280Z,0.00
2018-05-21T01:19:33.254Z,0.00
2018-05-21T01:20:33.240Z,0.00
2018-05-21T01:21:33.234Z,0.00
2018-05-21T01:22:33.207Z,0.00
2018-05-21T01:23:33.204Z,0.00
2018-05-21T01:24:33.183Z,0.00
2018-05-21T01:25:33.177Z,0.00
2018-05-21T01:26:33.154Z,0.00
2018-05-21T01:27:33.159Z,0.00
2018-05-21T01:28:33.137Z,0.00
2018-05-21T01:29:33.121Z,0.00
2018-05-21T01:30:33.105Z,0.00
2018-05-21T01:31:33.093Z,0.00
2018-05-21T01:32:33.080Z,0.00
2018-05-21T01:33:33.070Z,0.00
2018-05-21T01:34:33.057Z,0.00
2018-05-21T01:35:33.144Z,0.00
2018-05-21T01:36:33.012Z,0.00
2018-05-21T01:37:33.027Z,0.00
2018-05-21T01:38:33.002Z,0.00
2018-05-21T01:39:32.995Z,0.00
2018-05-21T01:40:32.967Z,0.00
2018-05-21T01:41:32.957Z,0.00
2018-05-21T01:42:32.939Z,0.00
2018-05-21T01:43:32.924Z,0.00
2018-05-21T01:44:32.916Z,0.00
2018-05-21T01:45:32.906Z,0.00
2018-05-21T01:46:32.886Z,0.00
2018-05-21T01:47:32.877Z,0.00
2018-05-21T01:48:32.874Z,0.00
2018-05-21T01:49:32.852Z,0.00
2018-05-21T01:50:32.851Z,0.00
2018-05-21T01:51:35.146Z,0.00
2018-05-21T01:52:32.813Z,0.00
2018-05-21T01:53:32.800Z,0.00
2018-05-21T01:54:32.801Z,0.00
2018-05-21T01:55:32.787Z,0.00
2018-05-21T01:56:32.762Z,0.00
2018-05-21T01:57:32.772Z,0.00
2018-05-21T01:58:32.727Z,0.00
2018-05-21T01:59:32.761Z,0.00
2018-05-21T02:00:32.714Z,0.00
2018-05-21T02:01:32.698Z,0.00
2018-05-21T02:02:32.682Z,0.00
2018-05-21T02:03:32.666Z,0.00
2018-05-21T02:04:32.660Z,0.00
2018-05-21T02:05:32.650Z,0.00
2018-05-21T02:06:32.622Z,0.00
2018-05-21T02:07:32.613Z,0.00
2018-05-21T02:08:32.708Z,0.00
2018-05-21T02:09:32.583Z,0.00
2018-05-21T02:10:32.573Z,0.00
2018-05-21T02:11:32.570Z,0.00
2018-05-21T02:12:32.560Z,0.00
2018-05-21T02:13:32.532Z,0.00
2018-05-21T02:14:32.525Z,0.00
2018-05-21T02:15:32.515Z,0.00
2018-05-21T02:16:32.504Z,0.00
2018-05-21T02:17:32.487Z,0.00
2018-05-21T02:18:32.465Z,0.00
2018-05-21T02:19:32.461Z,0.00
2018-05-21T02:20:32.431Z,0.00
2018-05-21T02:21:32.426Z,0.00
2018-05-21T02:22:32.412Z,0.00
2018-05-21T02:23:32.396Z,0.00
2018-05-21T02:24:32.396Z,0.00
2018-05-21T02:25:32.379Z,0.00
2018-05-21T02:26:32.371Z,0.00
2018-05-21T02:27:32.355Z,0.00
2018-05-21T02:28:32.329Z,0.00
2018-05-21T02:29:32.393Z,0.00
2018-05-21T02:30:32.319Z,0.00
2018-05-21T02:31:32.294Z,0.00
2018-05-21T02:32:32.275Z,0.00
2018-05-21T02:33:32.233Z,0.00
2018-05-21T02:34:32.224Z,0.00
2018-05-21T02:35:32.205Z,0.00
2018-05-21T02:36:32.251Z,0.00
2018-05-21T02:37:32.180Z,0.00
2018-05-21T02:38:32.167Z,0.00
2018-05-21T02:39:32.155Z,0.00
2018-05-21T02:40:32.145Z,0.00
2018-05-21T02:41:32.129Z,0.00
2018-05-21T02:42:32.178Z,0.00
2018-05-21T02:43:32.097Z,0.00
2018-05-21T02:44:32.084Z,0.00
2018-05-21T02:45:32.072Z,0.00
2018-05-21T02:46:32.065Z,0.00
2018-05-21T02:47:32.052Z,0.00
2018-05-21T02:48:32.058Z,0.00
2018-05-21T02:49:32.042Z,0.00
2018-05-21T02:50:32.031Z,0.00
2018-05-21T02:51:32.017Z,0.00
2018-05-21T02:52:32.007Z,0.00
2018-05-21T02:53:31.985Z,0.00
2018-05-21T02:54:31.979Z,0.00
2018-05-21T02:55:31.959Z,0.00
2018-05-21T02:56:34.612Z,4.00
2018-05-21T02:57:31.934Z,4.00
2018-05-21T02:58:31.928Z,0.00
2018-05-21T02:59:31.926Z,4.00
2018-05-21T03:00:31.905Z,4.00
2018-05-21T03:01:31.898Z,4.00
2018-05-21T03:02:31.860Z,4.00
2018-05-21T03:03:31.854Z,8.00
2018-05-21T03:04:31.841Z,4.00
2018-05-21T03:05:31.817Z,8.00
2018-05-21T03:06:31.822Z,8.00
2018-05-21T03:07:31.787Z,12.00
2018-05-21T03:08:31.771Z,12.00
2018-05-21T03:09:31.768Z,12.00
2018-05-21T03:10:31.749Z,16.00
2018-05-21T03:11:31.729Z,20.00
2018-05-21T03:12:31.727Z,20.00
2018-05-21T03:13:31.706Z,24.00
2018-05-21T03:14:31.710Z,28.00
2018-05-21T03:15:31.701Z,32.00
2018-05-21T03:16:31.670Z,36.00
2018-05-21T03:17:31.665Z,40.00
2018-05-21T03:18:31.646Z,48.00
2018-05-21T03:19:31.621Z,56.00
2018-05-21T03:20:31.614Z,60.00
2018-05-21T03:21:31.592Z,64.00
2018-05-21T03:22:31.587Z,72.00
2018-05-21T03:23:31.564Z,80.00
2018-05-21T03:24:31.554Z,92.00
2018-05-21T03:25:31.539Z,100.00
2018-05-21T03:26:31.541Z,108.00
2018-05-21T03:27:31.506Z,120.00
2018-05-21T03:28:31.500Z,132.00
2018-05-21T03:29:31.484Z,144.00
2018-05-21T03:30:31.464Z,156.00
2018-05-21T03:31:31.453Z,172.00
2018-05-21T03:32:31.433Z,184.00
2018-05-21T03:33:31.433Z,196.00
2018-05-21T03:34:31.420Z,208.00
2018-05-21T03:35:31.412Z,224.00
2018-05-21T03:36:31.383Z,240.00
2018-05-21T03:37:31.360Z,256.00
2018-05-21T03:38:31.363Z,272.00
2018-05-21T03:39:31.328Z,288.00
2018-05-21T03:40:31.338Z,300.00
2018-05-21T03:41:31.329Z,320.00
2018-05-21T03:42:31.296Z,340.00
2018-05-21T03:43:31.277Z,360.00
2018-05-21T03:44:31.276Z,376.00
2018-05-21T03:45:31.263Z,396.00
2018-05-21T03:46:31.239Z,416.00
2018-05-21T03:47:32.106Z,432.00
2018-05-21T03:48:31.208Z,456.00
2018-05-21T03:49:31.202Z,476.00
2018-05-21T03:50:31.176Z,504.00
2018-05-21T03:51:31.171Z,532.00
2018-05-21T03:52:31.138Z,560.00
2018-05-21T03:53:31.128Z,592.00
2018-05-21T03:54:31.112Z,620.00
2018-05-21T03:55:31.100Z,652.00
2018-05-21T03:56:31.083Z,688.00
2018-05-21T03:57:31.067Z,720.00
2018-05-21T03:58:31.071Z,756.00
2018-05-21T03:59:31.042Z,792.00
2018-05-21T04:00:31.028Z,828.00
2018-05-21T04:01:31.011Z,860.00
2018-05-21T04:02:31.006Z,892.00
2018-05-21T04:03:30.985Z,924.00
2018-05-21T04:04:31.061Z,956.00
2018-05-21T04:05:30.924Z,980.00
2018-05-21T04:06:30.937Z,1004.00
2018-05-21T04:07:30.921Z,1028.00
2018-05-21T04:08:30.908Z,1060.00
2018-05-21T04:09:30.896Z,1088.00
2018-05-21T04:10:30.874Z,1128.00
2018-05-21T04:11:30.862Z,1188.00
2018-05-21T04:12:30.848Z,1244.00
2018-05-21T04:13:30.834Z,1300.00
2018-05-21T04:14:30.847Z,1364.00
2018-05-21T04:15:30.799Z,1424.00
2018-05-21T04:16:30.796Z,1484.00
2018-05-21T04:17:30.784Z,1540.00
2018-05-21T04:18:30.770Z,1616.00
2018-05-21T04:19:30.748Z,1668.00
2018-05-21T04:20:30.732Z,1716.00
2018-05-21T04:21:30.732Z,1764.00
2018-05-21T04:22:30.708Z,1824.00
2018-05-21T04:23:30.691Z,1880.00
2018-05-21T04:24:30.671Z,1944.00
2018-05-21T04:25:30.730Z,1992.00
2018-05-21T04:26:30.649Z,1980.00
2018-05-21T04:27:30.630Z,1988.00
2018-05-21T04:28:30.633Z,2036.00
2018-05-21T04:29:30.606Z,2048.00
2018-05-21T04:30:30.590Z,2064.00
2018-05-21T04:31:30.587Z,2132.00
2018-05-21T04:32:30.571Z,2224.00
2018-05-21T04:33:30.562Z,2312.00
2018-05-21T04:34:30.534Z,2388.00
2018-05-21T04:35:30.526Z,2432.00
2018-05-21T04:36:30.615Z,2468.00
2018-05-21T04:37:30.485Z,2532.00
2018-05-21T04:38:30.540Z,2580.00
2018-05-21T04:39:30.462Z,2628.00
2018-05-21T04:40:30.456Z,2684.00
2018-05-21T04:41:30.440Z,2728.00
2018-05-21T04:42:30.430Z,2724.00
2018-05-21T04:43:30.408Z,2712.00
2018-05-21T04:44:30.393Z,2688.00
2018-05-21T04:45:30.376Z,2708.00
2018-05-21T04:46:30.363Z,2760.00
2018-05-21T04:47:30.359Z,2820.00
2018-05-21T04:48:30.334Z,2884.00
2018-05-21T04:49:30.321Z,2964.00
2018-05-21T04:50:30.324Z,3056.00
2018-05-21T04:51:30.295Z,3148.00
2018-05-21T04:52:30.295Z,3200.00
2018-05-21T04:53:30.274Z,3248.00
2018-05-21T04:54:30.260Z,3332.00
2018-05-21T04:55:30.251Z,3420.00
2018-05-21T04:56:30.243Z,3484.00
2018-05-21T04:57:30.219Z,3536.00
2018-05-21T04:58:30.196Z,3584.00
2018-05-21T04:59:30.193Z,3636.00
2018-05-21T05:00:30.170Z,3700.00
2018-05-21T05:01:30.152Z,3744.00
2018-05-21T05:02:30.141Z,3792.00
2018-05-21T05:03:30.129Z,3852.00
2018-05-21T05:04:30.110Z,3916.00
2018-05-21T05:05:30.110Z,3964.00
2018-05-21T05:06:30.094Z,4004.00
2018-05-21T05:07:30.083Z,4048.00
2018-05-21T05:08:30.061Z,4044.00
2018-05-21T05:09:30.056Z,4060.00
2018-05-21T05:10:30.039Z,4044.00
2018-05-21T05:11:30.020Z,4036.00
2018-05-21T05:12:30.013Z,4048.00
2018-05-21T05:13:30.010Z,4016.00
2018-05-21T05:14:29.993Z,4016.00
2018-05-21T05:15:29.951Z,3980.00
2018-05-21T05:16:29.929Z,3916.00
2018-05-21T05:17:29.910Z,3856.00
2018-05-21T05:18:29.926Z,3892.00
2018-05-21T05:19:29.907Z,3900.00
2018-05-21T05:20:29.894Z,3872.00
2018-05-21T05:21:29.884Z,3740.00
2018-05-21T05:22:29.878Z,3680.00
2018-05-21T05:23:29.865Z,3640.00
2018-05-21T05:24:29.840Z,3612.00
2018-05-21T05:25:29.847Z,3492.00
2018-05-21T05:26:29.810Z,3496.00
2018-05-21T05:27:29.810Z,3504.00
2018-05-21T05:28:29.793Z,3500.00
2018-05-21T05:29:29.778Z,3528.00
2018-05-21T05:30:29.756Z,3584.00
2018-05-21T05:31:29.759Z,3652.00
2018-05-21T05:32:29.740Z,3780.00
2018-05-21T05:33:29.723Z,3960.00
2018-05-21T05:34:29.710Z,4104.00
2018-05-21T05:35:29.698Z,4188.00
2018-05-21T05:36:29.691Z,4288.00
2018-05-21T05:37:29.640Z,4436.00
2018-05-21T05:38:29.653Z,4604.00
2018-05-21T05:39:29.656Z,4732.00
2018-05-21T05:40:29.630Z,4848.00
2018-05-21T05:41:29.627Z,4956.00
2018-05-21T05:42:29.615Z,5072.00
2018-05-21T05:43:29.599Z,5176.00
2018-05-21T05:44:29.579Z,5276.00
2018-05-21T05:45:29.569Z,5344.00
2018-05-21T05:46:29.624Z,5452.00
2018-05-21T05:47:29.532Z,5320.00
2018-05-21T05:48:29.535Z,5376.00
2018-05-21T05:49:29.526Z,5384.00
2018-05-21T05:50:29.509Z,5540.00
2018-05-21T05:51:29.487Z,5720.00
2018-05-21T05:52:29.480Z,5808.00
2018-05-21T05:53:29.461Z,5968.00
2018-05-21T05:54:29.435Z,6164.00
2018-05-21T05:55:29.439Z,6216.00
2018-05-21T05:56:29.435Z,6372.00
2018-05-21T05:57:29.416Z,6532.00
2018-05-21T05:58:29.387Z,7224.00
2018-05-21T05:59:29.384Z,6876.00
2018-05-21T06:00:29.365Z,8752.00
2018-05-21T06:01:29.365Z,7176.00
2018-05-21T06:02:29.337Z,7288.00
2018-05-21T06:03:29.392Z,10312.00
2018-05-21T06:04:29.325Z,16992.00
2018-05-21T06:05:29.317Z,15252.00
2018-05-21T06:06:29.292Z,12204.00
2018-05-21T06:07:29.272Z,10408.00
2018-05-21T06:08:29.272Z,7960.00
2018-05-21T06:09:31.989Z,5912.00
2018-05-21T06:10:29.244Z,5732.00
2018-05-21T06:11:29.228Z,5592.00
2018-05-21T06:12:29.216Z,5404.00
2018-05-21T06:13:29.200Z,5192.00
2018-05-21T06:14:29.209Z,5004.00
2018-05-21T06:15:29.174Z,4888.00
2018-05-21T06:16:29.183Z,4924.00
2018-05-21T06:17:29.165Z,5012.00
2018-05-21T06:18:29.152Z,5160.00
2018-05-21T06:19:29.123Z,5288.00
2018-05-21T06:20:29.133Z,5400.00
2018-05-21T06:21:29.100Z,5452.00
2018-05-21T06:22:29.107Z,5424.00
2018-05-21T06:23:29.097Z,5336.00
2018-05-21T06:24:29.068Z,5220.00
2018-05-21T06:25:29.063Z,5136.00
2018-05-21T06:26:29.047Z,5000.00
2018-05-21T06:27:29.027Z,4892.00
2018-05-21T06:28:29.016Z,4820.00
2018-05-21T06:29:29.028Z,4768.00
2018-05-21T06:30:28.996Z,4772.00
2018-05-21T06:31:28.980Z,4840.00
2018-05-21T06:32:28.964Z,4840.00
2018-05-21T06:33:28.974Z,4800.00
2018-05-21T06:34:28.983Z,4840.00
2018-05-21T06:35:28.939Z,4948.00
2018-05-21T06:36:28.939Z,5076.00
2018-05-21T06:37:28.915Z,5172.00
2018-05-21T06:38:28.898Z,5144.00
2018-05-21T06:39:28.887Z,5092.00
2018-05-21T06:40:28.884Z,5088.00
2018-05-21T06:41:28.888Z,5128.00
2018-05-21T06:42:28.874Z,5180.00
2018-05-21T06:43:28.856Z,5204.00
2018-05-21T06:44:28.839Z,5264.00
2018-05-21T06:45:28.816Z,5416.00
2018-05-21T06:46:28.824Z,5596.00
2018-05-21T06:47:28.815Z,5688.00
2018-05-21T06:48:28.803Z,5816.00
2018-05-21T06:49:28.777Z,6060.00
2018-05-21T06:50:28.765Z,6044.00
2018-05-21T06:51:28.761Z,6164.00
2018-05-21T06:52:28.757Z,6284.00
2018-05-21T06:53:28.726Z,6552.00
2018-05-21T06:54:28.735Z,6892.00
2018-05-21T06:55:28.719Z,7716.00
2018-05-21T06:56:28.707Z,7112.00
2018-05-21T06:57:28.697Z,6604.00
2018-05-21T06:58:28.665Z,6260.00
2018-05-21T06:59:28.659Z,6004.00
2018-05-21T07:00:28.666Z,5748.00
2018-05-21T07:01:28.655Z,5552.00
2018-05-21T07:02:28.623Z,5396.00
2018-05-21T07:03:28.609Z,5332.00
2018-05-21T07:04:28.620Z,5256.00
2018-05-21T07:05:28.605Z,5248.00
2018-05-21T07:06:28.596Z,5188.00
2018-05-21T07:07:28.567Z,5152.00
2018-05-21T07:08:28.570Z,5160.00
2018-05-21T07:09:28.567Z,5140.00
2018-05-21T07:10:28.548Z,5120.00
2018-05-21T07:11:28.538Z,5064.00
2018-05-21T07:12:28.519Z,5064.00
2018-05-21T07:13:28.519Z,5080.00
2018-05-21T07:14:28.506Z,5104.00
2018-05-21T07:15:28.478Z,5208.00
2018-05-21T07:16:28.480Z,5196.00
2018-05-21T07:17:28.474Z,5176.00
2018-05-21T07:18:28.449Z,5212.00
2018-05-21T07:19:28.439Z,5268.00
2018-05-21T07:20:28.439Z,5316.00
2018-05-21T07:21:28.430Z,5516.00
2018-05-21T07:22:28.397Z,5792.00
2018-05-21T07:23:28.390Z,6504.00
2018-05-21T07:24:28.423Z,6680.00
2018-05-21T07:25:28.390Z,6228.00
2018-05-21T07:26:28.371Z,6216.00
2018-05-21T07:27:28.348Z,6268.00
2018-05-21T07:28:28.336Z,6316.00
2018-05-21T07:29:28.326Z,6348.00
2018-05-21T07:30:28.311Z,6392.00
2018-05-21T07:31:28.326Z,6588.00
2018-05-21T07:32:28.307Z,6696.00
2018-05-21T07:33:28.298Z,6676.00
2018-05-21T07:34:28.285Z,6804.00
2018-05-21T07:35:28.285Z,6776.00
2018-05-21T07:36:28.262Z,6584.00
2018-05-21T07:37:28.253Z,6472.00
2018-05-21T07:38:28.253Z,6500.00
2018-05-21T07:39:28.240Z,6516.00
2018-05-21T07:40:28.237Z,6504.00
2018-05-21T07:41:28.221Z,6480.00
2018-05-21T07:42:28.201Z,6488.00
2018-05-21T07:43:28.210Z,6508.00
2018-05-21T07:44:28.194Z,6560.00
2018-05-21T07:45:28.188Z,6616.00
2018-05-21T07:46:28.178Z,6704.00
2018-05-21T07:47:28.185Z,6772.00
2018-05-21T07:48:28.164Z,6840.00
2018-05-21T07:49:28.237Z,6880.00
2018-05-21T07:50:28.164Z,6964.00
2018-05-21T07:51:28.175Z,7088.00
2018-05-21T07:52:28.130Z,7116.00
2018-05-21T07:53:28.143Z,7140.00
2018-05-21T07:54:28.133Z,7172.00
2018-05-21T07:55:28.111Z,7168.00
2018-05-21T07:56:28.101Z,7144.00
2018-05-21T07:57:28.117Z,7160.00
2018-05-21T07:58:28.101Z,7176.00
2018-05-21T07:59:28.082Z,7152.00
2018-05-21T08:00:28.077Z,7124.00
2018-05-21T08:01:28.085Z,7096.00
2018-05-21T08:02:28.085Z,7060.00
2018-05-21T08:03:28.063Z,7008.00
2018-05-21T08:04:28.058Z,7004.00
2018-05-21T08:05:28.059Z,7020.00
2018-05-21T08:06:28.060Z,7108.00
2018-05-21T08:07:28.051Z,7228.00
2018-05-21T08:08:28.044Z,7276.00
2018-05-21T08:09:28.025Z,7380.00
2018-05-21T08:10:28.028Z,7284.00
2018-05-21T08:11:28.006Z,7516.00
2018-05-21T08:12:28.025Z,7592.00
2018-05-21T08:13:27.999Z,7688.00
2018-05-21T08:14:28.019Z,7840.00
2018-05-21T08:15:27.989Z,7836.00
2018-05-21T08:16:28.000Z,7944.00
2018-05-21T08:17:27.993Z,7948.00
2018-05-21T08:18:27.989Z,7960.00
2018-05-21T08:19:27.968Z,8000.00
2018-05-21T08:20:27.963Z,8108.00
2018-05-21T08:21:27.973Z,8292.00
2018-05-21T08:22:27.967Z,8412.00
2018-05-21T08:23:27.952Z,8424.00
2018-05-21T08:24:27.949Z,8508.00
2018-05-21T08:25:27.944Z,8596.00
2018-05-21T08:26:27.932Z,8636.00
2018-05-21T08:27:27.948Z,8696.00
2018-05-21T08:28:27.935Z,8168.00
2018-05-21T08:29:27.932Z,8940.00
2018-05-21T08:30:27.910Z,9024.00
2018-05-21T08:31:27.903Z,9108.00
2018-05-21T08:32:27.909Z,9212.00
2018-05-21T08:33:27.901Z,9356.00
2018-05-21T08:34:27.884Z,9464.00
2018-05-21T08:35:27.855Z,9676.00
2018-05-21T08:36:27.852Z,9856.00
2018-05-21T08:37:27.849Z,10116.00
2018-05-21T08:38:27.843Z,10408.00
2018-05-21T08:39:27.840Z,10680.00
2018-05-21T08:40:27.829Z,10916.00
2018-05-21T08:41:27.823Z,11212.00
2018-05-21T08:42:27.826Z,11468.00
2018-05-21T08:43:27.824Z,11840.00
2018-05-21T08:44:27.810Z,12168.00
2018-05-21T08:45:27.806Z,12652.00
2018-05-21T08:46:27.803Z,13024.00
2018-05-21T08:47:27.797Z,13392.00
2018-05-21T08:48:27.876Z,13628.00
2018-05-21T08:49:27.787Z,13848.00
2018-05-21T08:50:27.777Z,14068.00
2018-05-21T08:51:27.784Z,14228.00
2018-05-21T08:52:27.850Z,14420.00
2018-05-21T08:53:27.765Z,14608.00
2018-05-21T08:54:27.762Z,15020.00
2018-05-21T08:55:27.755Z,15368.00
2018-05-21T08:56:27.755Z,15724.00
2018-05-21T08:57:27.740Z,16116.00
2018-05-21T08:58:27.742Z,16572.00
2018-05-21T08:59:27.732Z,17112.00
2018-05-21T09:00:27.733Z,17712.00
2018-05-21T09:01:27.720Z,19040.00
2018-05-21T09:02:27.724Z,26208.00
2018-05-21T09:03:27.708Z,65024.00
2018-05-21T09:04:27.707Z,96800.00
2018-05-21T09:05:27.704Z,97248.00
2018-05-21T09:06:27.730Z,100512.00
2018-05-21T09:07:27.714Z,103232.00
2018-05-21T09:08:27.715Z,107072.00
2018-05-21T09:09:27.703Z,106944.00
2018-05-21T09:10:27.711Z,99712.00
2018-05-21T09:11:27.704Z,85280.00
2018-05-21T09:12:27.791Z,76448.00
2018-05-21T09:13:27.711Z,83680.00
2018-05-21T09:14:27.689Z,96000.00
2018-05-21T09:15:27.685Z,101376.00
2018-05-21T09:16:27.764Z,100832.00
2018-05-21T09:17:27.663Z,99840.00
2018-05-21T09:18:27.662Z,98688.00
2018-05-21T09:19:27.672Z,99072.00
2018-05-21T09:20:27.654Z,80800.00
2018-05-21T09:21:27.645Z,97888.00
2018-05-21T09:22:27.654Z,95744.00
2018-05-21T09:23:27.627Z,89984.00
2018-05-21T09:24:27.631Z,96448.00
2018-05-21T09:25:27.621Z,100992.00
2018-05-21T09:26:27.614Z,103168.00
2018-05-21T09:27:27.621Z,103968.00
2018-05-21T09:28:27.617Z,108256.00
2018-05-21T09:29:27.608Z,109248.00
2018-05-21T09:30:27.604Z,109984.00
2018-05-21T09:31:27.641Z,109376.00
2018-05-21T09:32:27.656Z,109088.00
2018-05-21T09:33:27.579Z,109024.00
2018-05-21T09:34:27.582Z,109312.00
2018-05-21T09:35:27.569Z,110432.00
2018-05-21T09:36:27.564Z,111456.00
2018-05-21T09:37:27.570Z,112032.00
2018-05-21T09:38:27.551Z,111392.00
2018-05-21T09:39:27.557Z,110880.00
2018-05-21T09:40:27.546Z,109952.00
2018-05-21T09:41:27.528Z,109664.00
2018-05-21T09:42:27.540Z,108832.00
2018-05-21T09:43:27.534Z,108096.00
2018-05-21T09:44:27.515Z,107552.00
2018-05-21T09:45:28.012Z,108960.00
2018-05-21T09:46:27.515Z,108960.00
2018-05-21T09:47:27.505Z,108800.00
2018-05-21T09:48:27.499Z,107392.00
2018-05-21T09:49:27.509Z,103712.00
2018-05-21T09:50:27.480Z,98080.00
2018-05-21T09:51:27.486Z,96288.00
2018-05-21T09:52:27.475Z,98752.00
2018-05-21T09:53:27.473Z,104416.00
2018-05-21T09:54:27.464Z,105664.00
2018-05-21T09:55:27.473Z,109088.00
2018-05-21T09:56:27.471Z,109056.00
2018-05-21T09:57:27.455Z,109312.00
2018-05-21T09:58:27.461Z,105632.00
2018-05-21T09:59:27.451Z,104032.00
2018-05-21T10:00:27.448Z,107328.00
2018-05-21T10:01:27.448Z,110112.00
2018-05-21T10:02:27.431Z,111200.00
2018-05-21T10:03:27.435Z,110912.00
2018-05-21T10:04:27.418Z,112352.00
2018-05-21T10:05:27.419Z,110144.00
2018-05-21T10:06:27.426Z,112352.00
2018-05-21T10:07:27.412Z,101216.00
2018-05-21T10:08:27.406Z,107680.00
2018-05-21T10:09:27.417Z,106176.00
2018-05-21T10:10:27.395Z,99488.00
2018-05-21T10:11:27.411Z,93184.00
2018-05-21T10:12:27.393Z,98656.00
2018-05-21T10:13:27.395Z,108288.00
2018-05-21T10:14:27.383Z,111968.00
2018-05-21T10:15:27.392Z,116448.00
2018-05-21T10:16:27.373Z,116608.00
2018-05-21T10:17:27.370Z,117184.00
2018-05-21T10:18:27.378Z,118848.00
2018-05-21T10:19:27.390Z,122304.00
2018-05-21T10:20:27.360Z,116256.00
2018-05-21T10:21:27.373Z,112000.00
2018-05-21T10:22:27.357Z,110720.00
2018-05-21T10:23:27.360Z,104544.00
2018-05-21T10:24:27.371Z,69984.00
2018-05-21T10:25:27.357Z,67584.00
2018-05-21T10:26:27.383Z,102624.00
2018-05-21T10:27:27.360Z,92320.00
2018-05-21T10:28:27.348Z,101376.00
2018-05-21T10:29:27.364Z,100928.00
2018-05-21T10:30:27.341Z,98624.00
2018-05-21T10:31:27.355Z,109280.00
2018-05-21T10:32:27.351Z,101504.00
2018-05-21T10:33:27.341Z,112256.00
2018-05-21T10:34:27.343Z,111232.00
2018-05-21T10:35:27.341Z,99680.00
2018-05-21T10:36:27.352Z,101344.00
2018-05-21T10:37:27.345Z,109472.00
2018-05-21T10:38:27.345Z,109696.00
2018-05-21T10:39:27.341Z,112800.00
2018-05-21T10:40:27.332Z,118944.00
2018-05-21T10:41:27.322Z,105472.00
2018-05-21T10:42:27.332Z,96032.00
2018-05-21T10:43:27.322Z,82048.00
2018-05-21T10:44:27.338Z,94336.00
2018-05-21T10:45:27.319Z,89504.00
2018-05-21T10:46:27.335Z,84000.00
2018-05-21T10:47:27.319Z,99168.00
2018-05-21T10:48:27.338Z,117728.00
2018-05-21T10:49:27.329Z,122880.00
2018-05-21T10:50:27.339Z,119040.00
2018-05-21T10:51:27.345Z,116128.00
2018-05-21T10:52:27.325Z,109184.00
2018-05-21T10:53:27.326Z,118464.00
2018-05-21T10:54:27.316Z,118400.00
2018-05-21T10:55:27.328Z,29504.00
2018-05-21T10:56:27.332Z,100640.00
2018-05-21T10:57:27.362Z,104576.00
2018-05-21T10:58:27.335Z,101664.00
2018-05-21T10:59:27.336Z,87904.00
2018-05-21T11:00:27.326Z,90112.00
2018-05-21T11:01:27.341Z,108416.00
2018-05-21T11:02:27.348Z,127360.00
2018-05-21T11:03:27.348Z,130656.00
2018-05-21T11:04:27.344Z,34432.00
2018-05-21T11:05:27.350Z,46592.00
2018-05-21T11:06:27.340Z,108192.00
2018-05-21T11:07:27.344Z,47232.00
2018-05-21T11:08:27.351Z,93312.00
2018-05-21T11:09:27.348Z,96480.00
2018-05-21T11:10:27.362Z,89280.00
2018-05-21T11:11:27.354Z,84608.00
2018-05-21T11:12:27.351Z,80800.00
2018-05-21T11:13:27.364Z,73536.00
2018-05-21T11:14:27.345Z,76576.00
2018-05-21T11:15:27.347Z,72032.00
2018-05-21T11:16:27.393Z,59456.00
2018-05-21T11:17:27.356Z,57824.00
2018-05-21T11:18:27.362Z,55040.00
2018-05-21T11:19:27.357Z,51296.00
2018-05-21T11:20:27.360Z,51200.00
2018-05-21T11:21:27.364Z,54208.00
2018-05-21T11:22:27.354Z,59232.00
2018-05-21T11:23:27.364Z,62496.00
2018-05-21T11:24:27.358Z,63904.00
2018-05-21T11:25:27.361Z,60512.00
2018-05-21T11:26:27.364Z,61120.00
2018-05-21T11:27:27.367Z,58432.00
2018-05-21T11:28:27.380Z,61088.00
2018-05-21T11:29:27.371Z,61312.00
2018-05-21T11:30:27.364Z,71456.00
2018-05-21T11:31:27.358Z,92384.00
2018-05-21T11:32:27.377Z,100544.00
2018-05-21T11:33:27.377Z,123488.00
2018-05-21T11:34:27.338Z,127808.00
2018-05-21T11:35:27.338Z,123712.00
2018-05-21T11:36:27.338Z,132192.00
2018-05-21T11:37:27.335Z,133664.00
2018-05-21T11:38:27.341Z,129792.00
2018-05-21T11:39:27.348Z,122240.00
2018-05-21T11:40:27.348Z,113600.00
2018-05-21T11:41:27.351Z,110816.00
2018-05-21T11:42:27.354Z,110656.00
2018-05-21T11:43:27.357Z,115136.00
2018-05-21T11:44:27.361Z,113728.00
2018-05-21T11:45:27.373Z,107904.00
2018-05-21T11:46:27.433Z,104032.00
2018-05-21T11:47:27.377Z,99904.00
2018-05-21T11:48:27.382Z,105568.00
2018-05-21T11:49:27.383Z,102304.00
2018-05-21T11:50:27.389Z,97536.00
2018-05-21T11:51:27.396Z,91008.00
2018-05-21T11:52:27.396Z,87040.00
2018-05-21T11:53:27.405Z,84384.00
2018-05-21T11:54:27.409Z,93120.00
2018-05-21T11:55:27.411Z,97152.00
2018-05-21T11:56:27.418Z,94400.00
2018-05-21T11:57:27.423Z,98272.00
2018-05-21T11:58:27.428Z,103872.00
2018-05-21T11:59:27.492Z,115072.00
2018-05-21T12:00:27.439Z,122880.00
2018-05-21T12:01:27.444Z,122496.00
2018-05-21T12:02:27.442Z,125568.00
2018-05-21T12:03:27.442Z,136864.00
2018-05-21T12:04:27.455Z,78560.00
2018-05-21T12:05:27.462Z,134944.00
2018-05-21T12:06:27.463Z,94528.00
2018-05-21T12:07:27.468Z,59168.00
2018-05-21T12:08:27.477Z,43648.00
2018-05-21T12:09:27.484Z,43520.00
2018-05-21T12:10:27.493Z,43456.00
2018-05-21T12:11:27.493Z,43264.00
2018-05-21T12:12:27.500Z,42816.00
2018-05-21T12:13:27.568Z,42272.00
2018-05-21T12:14:27.509Z,42592.00
2018-05-21T12:15:27.528Z,45408.00